createdAt,value
2019-02-28T00:00:42.479Z,19.15
2019-02-28T00:03:11.212Z,18.40
2019-02-28T00:05:40.002Z,17.42
2019-02-28T00:08:08.738Z,18.15
2019-02-28T00:10:37.480Z,22.37
2019-02-28T00:13:06.316Z,21.33
2019-02-28T00:15:35.150Z,21.17
2019-02-28T00:18:03.970Z,22.80
2019-02-28T00:20:32.727Z,26.60
2019-02-28T00:23:01.784Z,23.83
2019-02-28T00:25:30.652Z,23.98
2019-02-28T00:27:59.491Z,23.80
2019-02-28T00:30:28.358Z,21.17
2019-02-28T00:32:59.390Z,19.85
2019-02-28T00:35:27.763Z,22.20
2019-02-28T00:37:57.368Z,21.35
2019-02-28T00:40:26.217Z,23.07
2019-02-28T00:42:55.087Z,20.20
2019-02-28T00:45:23.873Z,19.05
2019-02-28T00:47:52.624Z,19.95
2019-02-28T00:50:21.424Z,18.67
2019-02-28T00:52:50.259Z,19.90
2019-02-28T00:55:19.080Z,20.90
2019-02-28T00:57:47.860Z,18.55
2019-02-28T01:00:21.307Z,21.37
2019-02-28T01:02:53.523Z,22.27
2019-02-28T01:05:20.623Z,21.77
2019-02-28T01:07:49.358Z,18.20
2019-02-28T01:10:18.098Z,16.10
2019-02-28T01:12:46.856Z,14.87
2019-02-28T01:15:16.982Z,15.40
2019-02-28T01:17:46.141Z,16.93
2019-02-28T01:20:16.495Z,16.45
2019-02-28T01:22:45.497Z,17.05
2019-02-28T01:25:18.551Z,22.87
2019-02-28T01:27:47.414Z,18.07
2019-02-28T01:30:16.514Z,15.30
2019-02-28T01:32:50.002Z,15.85
2019-02-28T01:35:15.828Z,15.08
2019-02-28T01:37:44.657Z,15.50
2019-02-28T01:40:14.587Z,17.00
2019-02-28T01:42:43.388Z,12.95
2019-02-28T01:45:13.275Z,16.93
2019-02-28T01:47:42.093Z,14.83
2019-02-28T01:50:12.082Z,16.07
2019-02-28T01:52:44.375Z,15.35
2019-02-28T01:55:11.737Z,14.75
2019-02-28T01:57:43.866Z,16.85
2019-02-28T02:00:13.870Z,14.90
2019-02-28T02:02:42.646Z,14.50
2019-02-28T02:05:11.451Z,12.68
2019-02-28T02:07:40.201Z,18.77
2019-02-28T02:10:21.683Z,15.65
2019-02-28T02:12:51.562Z,13.15
2019-02-28T02:15:20.731Z,12.40
2019-02-28T02:17:49.525Z,13.95
2019-02-28T02:20:18.386Z,15.45
2019-02-28T02:22:47.146Z,15.90
2019-02-28T02:25:15.934Z,18.70
2019-02-28T02:27:44.808Z,12.70
2019-02-28T02:30:19.290Z,14.43
2019-02-28T02:32:48.031Z,14.60
2019-02-28T02:35:17.154Z,15.72
2019-02-28T02:37:45.917Z,13.72
2019-02-28T02:40:16.143Z,13.72
2019-02-28T02:42:48.906Z,15.08
2019-02-28T02:45:15.686Z,16.12
2019-02-28T02:47:44.525Z,14.47
2019-02-28T02:50:14.388Z,15.38
2019-02-28T02:52:43.723Z,14.20
2019-02-28T02:55:13.308Z,14.78
2019-02-28T02:57:42.234Z,16.75
2019-02-28T03:00:15.049Z,18.87
2019-02-28T03:02:44.251Z,13.62
2019-02-28T03:05:13.200Z,13.25
2019-02-28T03:07:42.109Z,17.87
2019-02-28T03:10:17.447Z,13.93
2019-02-28T03:12:45.975Z,15.43
2019-02-28T03:15:16.193Z,18.23
2019-02-28T03:17:47.118Z,15.90
2019-02-28T03:20:15.587Z,16.32
2019-02-28T03:22:44.503Z,16.07
2019-02-28T03:25:16.961Z,15.80
2019-02-28T03:27:45.807Z,18.10
2019-02-28T03:30:28.761Z,20.77
2019-02-28T03:32:50.145Z,20.40
2019-02-28T03:35:19.018Z,19.77
2019-02-28T03:37:47.821Z,16.10
2019-02-28T03:40:17.137Z,23.15
2019-02-28T03:42:45.908Z,18.73
2019-02-28T03:45:15.761Z,24.87
2019-02-28T03:47:44.581Z,20.17
2019-02-28T03:50:13.803Z,18.40
2019-02-28T03:52:44.574Z,21.15
2019-02-28T03:55:13.986Z,23.85
2019-02-28T03:57:43.238Z,20.23
2019-02-28T04:00:19.928Z,23.45
2019-02-28T04:02:56.927Z,21.02
2019-02-28T04:05:26.788Z,20.32
2019-02-28T04:07:53.687Z,23.07
2019-02-28T04:10:22.082Z,23.85
2019-02-28T04:12:50.853Z,21.80
2019-02-28T04:15:20.249Z,23.55
2019-02-28T04:17:49.224Z,24.57
2019-02-28T04:20:18.061Z,25.55
2019-02-28T04:22:46.908Z,23.42
2019-02-28T04:25:22.767Z,22.13
2019-02-28T04:27:46.246Z,23.40
2019-02-28T04:30:15.480Z,22.77
2019-02-28T04:32:44.247Z,25.10
2019-02-28T04:35:13.703Z,26.75
2019-02-28T04:37:46.720Z,25.48
2019-02-28T04:40:13.356Z,28.40
2019-02-28T04:42:42.168Z,23.87
2019-02-28T04:45:12.558Z,26.73
2019-02-28T04:47:41.676Z,28.47
2019-02-28T04:50:11.880Z,23.83
2019-02-28T04:52:46.799Z,27.25
2019-02-28T04:55:11.600Z,25.68
2019-02-28T04:57:40.399Z,26.97
2019-02-28T05:00:15.037Z,27.30
2019-02-28T05:02:43.922Z,32.45
2019-02-28T05:05:13.750Z,26.62
2019-02-28T05:07:42.750Z,31.82
2019-02-28T05:10:12.529Z,32.20
2019-02-28T05:12:41.453Z,32.45
2019-02-28T05:15:14.449Z,30.55
2019-02-28T05:17:43.260Z,29.87
2019-02-28T05:20:13.374Z,28.32
2019-02-28T05:22:42.389Z,32.80
2019-02-28T05:25:17.587Z,31.05
2019-02-28T05:27:42.700Z,30.95
2019-02-28T05:30:19.454Z,33.55
2019-02-28T05:32:48.249Z,33.63
2019-02-28T05:35:17.037Z,31.00
2019-02-28T05:37:48.253Z,32.08
2019-02-28T05:40:16.457Z,35.35
2019-02-28T05:42:45.293Z,33.90
2019-02-28T05:45:14.945Z,36.20
2019-02-28T05:47:46.977Z,34.03
2019-02-28T05:50:16.823Z,33.48
2019-02-28T05:52:45.660Z,36.53
2019-02-28T05:55:14.539Z,32.38
2019-02-28T05:57:44.756Z,35.10
2019-02-28T06:00:16.482Z,42.48
2019-02-28T06:02:45.289Z,35.43
2019-02-28T06:05:14.147Z,40.25
2019-02-28T06:07:42.891Z,35.10
2019-02-28T06:10:13.340Z,44.15
2019-02-28T06:12:43.937Z,42.65
2019-02-28T06:15:16.460Z,38.10
2019-02-28T06:17:45.203Z,38.33
2019-02-28T06:20:16.511Z,33.78
2019-02-28T06:22:44.984Z,43.28
2019-02-28T06:25:22.287Z,39.67
2019-02-28T06:27:49.138Z,41.90
2019-02-28T06:30:16.436Z,42.08
2019-02-28T06:32:45.227Z,42.27
2019-02-28T06:35:17.674Z,39.53
2019-02-28T06:37:44.835Z,42.62
2019-02-28T06:40:16.872Z,44.53
2019-02-28T06:42:46.970Z,43.40
2019-02-28T06:45:17.290Z,43.73
2019-02-28T06:47:49.744Z,48.52
2019-02-28T06:50:16.855Z,41.77
2019-02-28T06:52:45.648Z,43.58
2019-02-28T06:55:24.776Z,45.90
2019-02-28T06:57:53.568Z,51.35
2019-02-28T07:00:22.406Z,40.38
2019-02-28T07:02:51.307Z,49.58
2019-02-28T07:05:24.803Z,50.25
2019-02-28T07:07:50.900Z,52.43
2019-02-28T07:10:19.851Z,43.85
2019-02-28T07:12:48.674Z,48.00
2019-02-28T07:15:23.794Z,49.18
2019-02-28T07:17:47.904Z,56.85
2019-02-28T07:20:18.058Z,49.40
2019-02-28T07:22:47.461Z,46.77
2019-02-28T07:25:16.363Z,49.60
2019-02-28T07:27:45.122Z,45.85
2019-02-28T07:30:19.261Z,60.35
2019-02-28T07:32:48.393Z,51.98
2019-02-28T07:35:17.397Z,53.28
2019-02-28T07:37:46.189Z,48.20
2019-02-28T07:40:17.269Z,54.95
2019-02-28T07:42:46.492Z,52.70
2019-02-28T07:45:16.118Z,56.23
2019-02-28T07:47:44.988Z,67.47
2019-02-28T07:50:16.968Z,59.35
2019-02-28T07:52:45.841Z,52.38
2019-02-28T07:55:21.271Z,58.00
2019-02-28T07:57:54.221Z,56.48
2019-02-28T08:00:23.943Z,57.90
2019-02-28T08:02:52.717Z,58.28
2019-02-28T08:05:21.605Z,54.05
2019-02-28T08:07:52.360Z,60.83
2019-02-28T08:10:29.474Z,60.28
2019-02-28T08:12:58.650Z,59.23
2019-02-28T08:15:29.126Z,64.22
2019-02-28T08:17:57.981Z,67.35
2019-02-28T08:20:26.813Z,61.00
2019-02-28T08:22:56.527Z,62.25
2019-02-28T08:25:26.349Z,61.68
2019-02-28T08:27:59.235Z,62.98
2019-02-28T08:30:35.682Z,64.27
2019-02-28T08:33:04.678Z,80.32
2019-02-28T08:35:34.884Z,62.55
2019-02-28T08:38:04.006Z,64.45
2019-02-28T08:40:32.735Z,63.55
2019-02-28T08:43:01.544Z,55.88
2019-02-28T08:45:33.342Z,64.17
2019-02-28T08:48:00.855Z,70.67
2019-02-28T08:50:29.644Z,68.35
2019-02-28T08:53:05.450Z,67.00
2019-02-28T08:55:34.225Z,69.77
2019-02-28T08:58:06.166Z,66.10
2019-02-28T09:00:33.837Z,65.83
2019-02-28T09:03:02.670Z,69.40
2019-02-28T09:05:31.455Z,65.12
2019-02-28T09:08:00.244Z,73.90
2019-02-28T09:10:29.092Z,64.05
2019-02-28T09:12:57.899Z,67.72
2019-02-28T09:15:30.070Z,64.67
2019-02-28T09:17:59.465Z,79.80
2019-02-28T09:20:27.746Z,77.82
2019-02-28T09:23:01.661Z,66.95
2019-02-28T09:25:27.164Z,67.00
2019-02-28T09:27:55.950Z,66.55
2019-02-28T09:30:29.659Z,54.18
2019-02-28T09:32:58.286Z,62.20
2019-02-28T09:35:27.032Z,69.00
2019-02-28T09:37:55.884Z,68.12
2019-02-28T09:40:25.652Z,66.65
2019-02-28T09:42:55.228Z,73.83
2019-02-28T09:45:33.861Z,68.07
2019-02-28T09:48:02.629Z,64.85
2019-02-28T09:50:33.005Z,66.17
2019-02-28T09:53:01.887Z,64.07
2019-02-28T09:55:34.168Z,71.80
2019-02-28T09:58:01.142Z,68.85
2019-02-28T10:00:30.502Z,76.28
2019-02-28T10:02:59.261Z,70.60
2019-02-28T10:05:28.059Z,66.05
2019-02-28T10:08:01.614Z,68.92
2019-02-28T10:10:28.779Z,67.15
2019-02-28T10:12:57.647Z,65.67
2019-02-28T10:15:26.736Z,69.37
2019-02-28T10:17:55.606Z,73.47
2019-02-28T10:20:28.649Z,63.80
2019-02-28T10:22:57.275Z,69.63
2019-02-28T10:25:26.144Z,81.67
2019-02-28T10:27:55.022Z,72.63
2019-02-28T10:30:31.556Z,69.70
2019-02-28T10:32:57.561Z,59.47
2019-02-28T10:35:26.074Z,66.37
2019-02-28T10:37:58.466Z,61.40
2019-02-28T10:40:26.528Z,68.42
2019-02-28T10:42:55.801Z,55.80
2019-02-28T10:45:25.106Z,60.95
2019-02-28T10:47:53.889Z,72.65
2019-02-28T10:50:33.363Z,63.42
2019-02-28T10:53:04.078Z,65.20
2019-02-28T10:55:31.424Z,56.75
2019-02-28T10:58:00.336Z,60.63
2019-02-28T11:00:40.576Z,71.53
2019-02-28T11:03:09.496Z,62.05
2019-02-28T11:05:43.401Z,63.83
2019-02-28T11:08:16.347Z,61.37
2019-02-28T11:10:45.846Z,67.97
2019-02-28T11:13:19.765Z,58.28
2019-02-28T11:15:49.420Z,54.70
2019-02-28T11:18:18.345Z,54.60
2019-02-28T11:20:47.359Z,60.35
2019-02-28T11:23:16.034Z,63.60
2019-02-28T11:25:44.579Z,60.37
2019-02-28T11:28:13.902Z,59.67
2019-02-28T11:30:45.457Z,55.80
2019-02-28T11:33:15.578Z,58.38
2019-02-28T11:35:44.160Z,59.53
2019-02-28T11:38:13.147Z,61.28
2019-02-28T11:40:43.707Z,61.43
2019-02-28T11:43:12.017Z,62.50
2019-02-28T11:45:43.861Z,63.40
2019-02-28T11:48:20.160Z,65.17
2019-02-28T11:50:47.825Z,69.97
2019-02-28T11:53:16.296Z,62.60
2019-02-28T11:55:44.854Z,60.90
2019-02-28T11:58:16.318Z,66.33
2019-02-28T12:00:43.766Z,65.90
2019-02-28T12:03:12.304Z,65.57
2019-02-28T12:05:40.787Z,61.17
2019-02-28T12:08:10.706Z,65.57
2019-02-28T12:10:39.331Z,75.23
2019-02-28T12:13:07.848Z,63.10
2019-02-28T12:15:40.686Z,61.63
2019-02-28T12:18:09.193Z,62.20
2019-02-28T12:20:37.683Z,65.93
2019-02-28T12:23:06.281Z,68.10
2019-02-28T12:25:34.774Z,57.90
2019-02-28T12:28:06.333Z,62.00
2019-02-28T12:30:34.397Z,66.90
2019-02-28T12:33:02.904Z,70.10
2019-02-28T12:35:37.291Z,55.77
2019-02-28T12:38:01.611Z,62.27
2019-02-28T12:40:35.310Z,60.03
2019-02-28T12:43:08.727Z,67.83
2019-02-28T12:45:38.303Z,60.57
2019-02-28T12:48:06.863Z,54.63
2019-02-28T12:50:35.396Z,55.00
2019-02-28T12:53:04.038Z,55.37
2019-02-28T12:55:35.512Z,59.90
2019-02-28T12:58:02.734Z,52.60
2019-02-28T13:00:39.187Z,56.27
2019-02-28T13:03:09.172Z,52.33
2019-02-28T13:05:37.802Z,60.60
2019-02-28T13:08:07.073Z,57.23
2019-02-28T13:10:35.945Z,65.40
2019-02-28T13:13:06.632Z,57.63
2019-02-28T13:15:34.914Z,64.57
2019-02-28T13:18:07.110Z,60.03
2019-02-28T13:20:38.037Z,58.20
2019-02-28T13:23:06.638Z,66.50
2019-02-28T13:25:35.140Z,115.63
2019-02-28T13:28:03.752Z,62.47
2019-02-28T13:30:32.346Z,64.23
2019-02-28T13:33:00.817Z,53.83
2019-02-28T13:35:34.711Z,57.00
2019-02-28T13:38:03.178Z,59.43
2019-02-28T13:40:31.634Z,75.33
2019-02-28T13:43:01.865Z,61.57
2019-02-28T13:45:30.653Z,67.10
2019-02-28T13:47:59.217Z,60.23
2019-02-28T13:50:29.058Z,59.90
2019-02-28T13:53:02.546Z,66.80
2019-02-28T13:55:28.052Z,63.57
2019-02-28T13:57:56.504Z,68.70
2019-02-28T14:00:32.494Z,63.47
2019-02-28T14:03:10.517Z,68.40
2019-02-28T14:05:41.302Z,61.30
2019-02-28T14:08:11.412Z,58.07
2019-02-28T14:10:39.585Z,67.23
2019-02-28T14:13:08.522Z,83.80
2019-02-28T14:15:42.939Z,63.10
2019-02-28T14:18:12.231Z,64.17
2019-02-28T14:20:41.016Z,55.35
2019-02-28T14:23:09.829Z,70.45
2019-02-28T14:25:40.015Z,72.80
2019-02-28T14:28:09.453Z,55.92
2019-02-28T14:30:38.225Z,65.67
2019-02-28T14:33:07.562Z,72.25
2019-02-28T14:35:38.424Z,60.05
2019-02-28T14:38:06.856Z,69.17
2019-02-28T14:40:35.901Z,64.32
2019-02-28T14:43:04.757Z,63.78
2019-02-28T14:45:44.589Z,64.27
2019-02-28T14:48:13.326Z,63.30
2019-02-28T14:50:42.482Z,57.98
2019-02-28T14:53:14.375Z,60.60
2019-02-28T14:55:41.781Z,62.40
2019-02-28T14:58:10.529Z,60.90
2019-02-28T15:00:42.412Z,63.33
2019-02-28T15:03:10.295Z,65.85
2019-02-28T15:05:41.035Z,60.12
2019-02-28T15:08:12.004Z,67.08
2019-02-28T15:10:40.867Z,72.70
2019-02-28T15:13:09.717Z,64.58
2019-02-28T15:15:38.545Z,66.15
2019-02-28T15:18:11.039Z,64.53
2019-02-28T15:20:38.063Z,65.28
2019-02-28T15:23:06.931Z,69.27
2019-02-28T15:25:35.875Z,64.77
2019-02-28T15:28:04.696Z,66.72
2019-02-28T15:30:42.610Z,69.20
2019-02-28T15:33:11.386Z,66.17
2019-02-28T15:35:40.465Z,69.62
2019-02-28T15:38:10.412Z,69.50
2019-02-28T15:40:44.125Z,69.95
2019-02-28T15:43:16.890Z,72.08
2019-02-28T15:45:43.454Z,66.80
2019-02-28T15:48:12.323Z,72.37
2019-02-28T15:50:41.156Z,68.28
2019-02-28T15:53:11.262Z,73.02
2019-02-28T15:55:40.469Z,74.70
2019-02-28T15:58:09.529Z,75.03
2019-02-28T16:00:38.477Z,79.45
2019-02-28T16:03:07.332Z,74.60
2019-02-28T16:05:42.425Z,152.78
2019-02-28T16:08:10.381Z,60.12
2019-02-28T16:10:37.296Z,68.72
2019-02-28T16:13:07.426Z,71.80
2019-02-28T16:15:36.214Z,70.80
2019-02-28T16:18:08.753Z,70.70
2019-02-28T16:20:38.119Z,78.05
2019-02-28T16:23:06.988Z,77.90
2019-02-28T16:25:38.825Z,78.28
2019-02-28T16:28:08.949Z,75.55
2019-02-28T16:30:39.415Z,74.32
2019-02-28T16:33:08.396Z,72.85
2019-02-28T16:35:37.139Z,91.20
2019-02-28T16:38:09.555Z,81.85
2019-02-28T16:40:36.742Z,76.02
2019-02-28T16:43:05.521Z,74.45
2019-02-28T16:45:41.104Z,82.78
2019-02-28T16:48:09.241Z,84.62
2019-02-28T16:50:38.013Z,77.45
2019-02-28T16:53:06.850Z,77.62
2019-02-28T16:55:35.580Z,83.90
2019-02-28T16:58:04.436Z,84.67
2019-02-28T17:00:33.334Z,87.33
2019-02-28T17:03:04.006Z,96.28
2019-02-28T17:05:32.602Z,87.35
2019-02-28T17:08:01.360Z,92.08
2019-02-28T17:10:40.121Z,89.47
2019-02-28T17:13:28.973Z,91.65
2019-02-28T17:16:05.374Z,97.78
2019-02-28T17:18:35.778Z,90.60
2019-02-28T17:21:04.774Z,103.27
2019-02-28T17:23:36.452Z,90.97
2019-02-28T17:26:04.025Z,90.70
2019-02-28T17:28:34.461Z,94.92
2019-02-28T17:31:17.005Z,90.42
2019-02-28T17:33:47.672Z,86.15
2019-02-28T17:36:16.659Z,101.53
2019-02-28T17:38:45.570Z,95.97
2019-02-28T17:41:14.333Z,99.58
2019-02-28T17:43:45.462Z,97.27
2019-02-28T17:46:16.132Z,96.63
2019-02-28T17:49:07.048Z,95.92
2019-02-28T17:51:41.927Z,98.40
2019-02-28T17:54:20.920Z,99.97
2019-02-28T17:56:58.854Z,85.28
2019-02-28T17:59:36.133Z,99.83
2019-02-28T18:02:29.425Z,86.15
2019-02-28T18:05:16.301Z,90.65
2019-02-28T18:07:48.132Z,88.55
2019-02-28T18:10:31.871Z,91.08
2019-02-28T18:13:38.224Z,88.42
2019-02-28T18:16:12.716Z,88.72
2019-02-28T18:18:50.363Z,89.32
2019-02-28T18:21:41.927Z,82.33
2019-02-28T18:24:19.650Z,86.63
2019-02-28T18:26:54.759Z,83.80
2019-02-28T18:29:57.809Z,82.62
2019-02-28T18:32:29.720Z,84.70
2019-02-28T18:34:57.175Z,83.55
2019-02-28T18:37:25.971Z,81.32
2019-02-28T18:39:54.960Z,90.60
2019-02-28T18:42:23.781Z,88.62
2019-02-28T18:44:52.573Z,86.53
2019-02-28T18:47:21.379Z,80.07
2019-02-28T18:49:50.155Z,95.25
2019-02-28T18:52:20.217Z,85.42
2019-02-28T18:54:49.099Z,93.35
2019-02-28T18:57:18.122Z,87.62
2019-02-28T18:59:46.902Z,89.28
2019-02-28T19:02:15.668Z,90.30
2019-02-28T19:04:44.428Z,94.07
2019-02-28T19:07:13.192Z,93.50
2019-02-28T19:09:42.056Z,92.12
2019-02-28T19:12:10.834Z,84.60
2019-02-28T19:14:39.612Z,90.45
2019-02-28T19:17:08.381Z,91.80
2019-02-28T19:19:37.139Z,89.58
2019-02-28T19:22:05.913Z,100.07
2019-02-28T19:24:34.778Z,99.47
2019-02-28T19:27:03.552Z,94.15
2019-02-28T19:29:32.384Z,95.70
2019-02-28T19:32:01.219Z,102.75
2019-02-28T19:34:30.089Z,102.07
2019-02-28T19:36:59.022Z,100.25
2019-02-28T19:39:27.950Z,90.45
2019-02-28T19:41:57.190Z,102.00
2019-02-28T19:44:26.022Z,94.00
2019-02-28T19:46:54.817Z,102.10
2019-02-28T19:49:23.597Z,98.15
2019-02-28T19:51:52.480Z,94.97
2019-02-28T19:54:21.268Z,97.55
2019-02-28T19:56:50.126Z,107.12
2019-02-28T19:59:19.141Z,100.62
2019-02-28T20:01:48.130Z,92.90
2019-02-28T20:04:16.956Z,100.67
2019-02-28T20:06:45.711Z,100.75
2019-02-28T20:09:14.648Z,97.02
2019-02-28T20:11:43.482Z,100.95
2019-02-28T20:14:12.247Z,102.67
2019-02-28T20:16:41.084Z,110.32
2019-02-28T20:19:10.167Z,99.67
2019-02-28T20:21:38.993Z,98.55
2019-02-28T20:24:08.788Z,111.47
2019-02-28T20:26:37.657Z,103.78
2019-02-28T20:29:06.541Z,101.35
2019-02-28T20:31:35.411Z,489.63
2019-02-28T20:34:04.308Z,117.15
2019-02-28T20:36:33.136Z,106.78
2019-02-28T20:39:01.950Z,112.35
2019-02-28T20:41:30.759Z,105.22
2019-02-28T20:43:59.572Z,99.80
2019-02-28T20:46:28.598Z,100.00
2019-02-28T20:48:57.355Z,102.65
2019-02-28T20:51:26.180Z,106.07
2019-02-28T20:53:54.954Z,106.12
2019-02-28T20:56:23.792Z,105.07
2019-02-28T20:58:52.537Z,93.03
2019-02-28T21:01:21.345Z,101.90
2019-02-28T21:03:50.144Z,106.03
2019-02-28T21:06:19.022Z,96.20
2019-02-28T21:08:47.756Z,109.67
2019-02-28T21:11:16.520Z,92.75
2019-02-28T21:13:45.611Z,96.12
2019-02-28T21:16:14.417Z,101.27
2019-02-28T21:18:43.167Z,91.60
2019-02-28T21:21:11.990Z,99.07
2019-02-28T21:23:40.886Z,94.15
2019-02-28T21:26:09.745Z,92.17
2019-02-28T21:28:38.538Z,100.38
2019-02-28T21:31:07.285Z,87.78
2019-02-28T21:33:36.111Z,100.65
2019-02-28T21:36:05.103Z,100.55
2019-02-28T21:38:33.872Z,90.75
2019-02-28T21:41:03.014Z,99.00
2019-02-28T21:43:31.823Z,88.15
2019-02-28T21:46:00.829Z,88.20
2019-02-28T21:48:29.596Z,94.25
2019-02-28T21:50:58.367Z,81.90
2019-02-28T21:53:27.131Z,79.97
2019-02-28T21:55:55.861Z,87.42
2019-02-28T21:58:24.643Z,75.25
2019-02-28T22:00:53.398Z,83.12
2019-02-28T22:03:22.166Z,78.72
2019-02-28T22:05:50.941Z,81.67
2019-02-28T22:08:19.670Z,66.92
2019-02-28T22:10:48.417Z,70.12
2019-02-28T22:13:17.192Z,73.52
2019-02-28T22:15:46.038Z,72.72
2019-02-28T22:18:15.236Z,72.45
2019-02-28T22:20:44.032Z,72.60
2019-02-28T22:23:13.014Z,72.50
2019-02-28T22:25:41.789Z,72.82
2019-02-28T22:28:10.528Z,73.92
2019-02-28T22:30:43.651Z,76.80
2019-02-28T22:33:22.920Z,81.47
2019-02-28T22:35:53.323Z,78.90
2019-02-28T22:38:22.148Z,72.67
2019-02-28T22:40:50.934Z,68.72
2019-02-28T22:43:19.703Z,66.28
2019-02-28T22:45:48.522Z,63.55
2019-02-28T22:48:17.361Z,56.48
2019-02-28T22:50:46.125Z,58.87
2019-02-28T22:53:14.894Z,63.95
2019-02-28T22:55:43.666Z,61.18
2019-02-28T22:58:12.571Z,62.73
2019-02-28T23:00:59.058Z,60.28
2019-02-28T23:03:29.941Z,67.78
2019-02-28T23:05:59.040Z,63.68
2019-02-28T23:08:27.870Z,63.73
2019-02-28T23:10:56.716Z,66.67
2019-02-28T23:13:25.569Z,66.77
2019-02-28T23:15:54.451Z,64.90
2019-02-28T23:18:23.225Z,66.22
2019-02-28T23:20:52.015Z,64.15
2019-02-28T23:23:20.857Z,57.30
2019-02-28T23:25:49.859Z,66.02
2019-02-28T23:28:26.669Z,58.87
2019-02-28T23:31:16.455Z,65.08
2019-02-28T23:33:45.325Z,63.78
2019-02-28T23:36:14.087Z,69.90
2019-02-28T23:38:42.896Z,70.30
2019-02-28T23:41:11.653Z,65.37
2019-02-28T23:43:40.401Z,58.35
2019-02-28T23:46:09.162Z,66.10
2019-02-28T23:48:37.934Z,59.25
2019-02-28T23:51:06.670Z,78.75
2019-02-28T23:53:35.446Z,68.12
2019-02-28T23:56:04.184Z,73.37
2019-02-28T23:58:33.003Z,66.97
